Time;durP1;ratioP1;P1;durP2;ratioP2;P2;SDS_P1;SDS_P2;PMS_P1;PMS_P2;Temp;Humidity;BMP_temperature;BMP_pressure;BME280_temperature;BME280_humidity;BME280_pressure;Samples;Min_cycle;Max_cycle;Signal;HPM_P1;HPM_P2
2021/12/06 00:01:14;;;;;;;51.43;23.80;;;2.10;99.90;;;;;;4671911;30;20047;-83
2021/12/06 00:03:46;;;;;;;51.23;24.20;;;2.10;99.90;;;;;;4689780;30;20045;-83
2021/12/06 00:06:14;;;;;;;51.72;23.63;;;2.20;99.90;;;;;;4703252;30;20116;-83
2021/12/06 00:08:40;;;;;;;51.60;24.43;;;2.20;99.90;;;;;;4704370;30;20057;-82
2021/12/06 00:11:08;;;;;;;54.07;23.60;;;2.10;99.90;;;;;;4685512;30;20110;-83
2021/12/06 00:13:36;;;;;;;52.27;23.67;;;2.10;99.90;;;;;;4682603;30;20183;-82
2021/12/06 00:16:07;;;;;;;53.77;24.13;;;2.20;99.90;;;;;;4696598;30;20080;-83
2021/12/06 00:18:33;;;;;;;53.30;23.50;;;2.20;99.90;;;;;;4694588;30;20121;-83
2021/12/06 00:21:00;;;;;;;52.17;24.13;;;2.20;99.90;;;;;;4706723;30;20056;-82
2021/12/06 00:23:27;;;;;;;52.60;23.73;;;2.20;99.90;;;;;;4692139;30;20049;-83
2021/12/06 00:25:54;;;;;;;53.07;23.70;;;2.30;99.90;;;;;;4689595;30;20069;-83
2021/12/06 00:28:19;;;;;;;54.87;22.90;;;2.20;99.90;;;;;;4706750;30;20064;-83
2021/12/06 00:30:45;;;;;;;50.93;24.27;;;2.30;99.90;;;;;;4704149;30;20041;-82
2021/12/06 00:33:11;;;;;;;55.83;24.23;;;2.30;99.90;;;;;;4694306;30;20081;-83
2021/12/06 00:35:37;;;;;;;53.00;24.43;;;2.30;99.90;;;;;;4699570;30;20052;-83
2021/12/06 00:38:02;;;;;;;46.07;22.77;;;2.30;99.90;;;;;;4702246;30;20194;-82
2021/12/06 00:40:40;;;;;;;56.10;25.07;;;2.30;99.90;;;;;;4700148;30;20102;-83
2021/12/06 00:43:06;;;;;;;52.20;23.53;;;2.30;99.90;;;;;;4695205;30;20045;-83
2021/12/06 00:45:32;;;;;;;50.87;23.13;;;2.30;99.90;;;;;;4701112;30;20054;-83
2021/12/06 00:47:59;;;;;;;53.90;25.07;;;2.30;99.90;;;;;;4694861;30;20343;-83
2021/12/06 00:50:28;;;;;;;49.27;23.33;;;2.30;99.90;;;;;;4683166;30;20387;-83
2021/12/06 00:52:54;;;;;;;46.70;22.27;;;2.40;99.90;;;;;;4693075;30;20119;-83
2021/12/06 00:55:22;;;;;;;45.97;22.20;;;2.40;99.90;;;;;;4699103;30;20057;-83
2021/12/06 00:57:52;;;;;;;51.50;23.07;;;2.40;99.90;;;;;;4699069;30;20430;-83
2021/12/06 01:00:22;;;;;;;51.90;23.10;;;2.40;99.90;;;;;;4687269;30;20415;-83
2021/12/06 01:02:48;;;;;;;53.03;23.37;;;2.40;99.90;;;;;;4691414;30;20045;-83
2021/12/06 01:05:14;;;;;;;50.50;23.23;;;2.40;99.90;;;;;;4698916;30;20052;-83
2021/12/06 01:07:40;;;;;;;56.37;24.17;;;2.40;99.90;;;;;;4681043;30;20546;-83
2021/12/06 01:10:08;;;;;;;53.23;23.80;;;2.40;99.90;;;;;;4689250;30;20048;-83
2021/12/06 01:12:35;;;;;;;53.20;24.20;;;2.40;99.90;;;;;;4694679;30;20079;-83
2021/12/06 01:15:00;;;;;;;51.13;23.70;;;2.40;99.90;;;;;;4692740;30;20049;-83
2021/12/06 01:17:26;;;;;;;49.07;23.33;;;2.40;99.90;;;;;;4705500;30;20120;-83
2021/12/06 01:19:52;;;;;;;54.27;24.70;;;2.50;99.90;;;;;;4671369;30;20045;-83
2021/12/06 01:22:25;;;;;;;54.77;24.43;;;2.40;99.90;;;;;;4700226;30;20049;-83
2021/12/06 01:25:02;;;;;;;54.47;24.30;;;2.40;99.90;;;;;;4705574;30;20137;-83
2021/12/06 01:27:45;;;;;;;52.27;24.10;;;2.40;99.90;;;;;;4675807;30;20568;-83
2021/12/06 01:30:27;;;;;;;51.57;22.97;;;2.40;99.90;;;;;;4700488;30;20057;-83
2021/12/06 01:40:55;;;;;;;54.30;23.97;;;2.40;99.90;;;;;;4708770;30;20056;-83
2021/12/06 01:43:21;;;;;;;54.10;23.33;;;2.50;99.90;;;;;;4694793;30;20041;-83
2021/12/06 01:45:47;;;;;;;56.27;24.97;;;2.40;99.90;;;;;;4707362;30;20131;-83
2021/12/06 01:48:13;;;;;;;56.20;25.60;;;2.40;99.90;;;;;;4697959;30;20115;-83
2021/12/06 01:50:38;;;;;;;57.20;25.43;;;2.50;99.90;;;;;;4711563;30;20057;-83
2021/12/06 01:53:05;;;;;;;61.30;26.53;;;2.40;99.90;;;;;;4690454;30;20055;-83
2021/12/06 01:55:34;;;;;;;57.03;25.27;;;2.40;99.90;;;;;;4700308;30;20053;-83
2021/12/06 01:58:03;;;;;;;61.03;25.87;;;2.40;99.90;;;;;;4691692;30;20411;-83
2021/12/06 02:00:35;;;;;;;54.53;25.03;;;2.40;99.90;;;;;;4691147;30;20142;-83
2021/12/06 02:03:01;;;;;;;;;;;2.40;99.90;;;;;;4703041;30;20515;-83
2021/12/06 02:05:27;;;;;;;58.70;25.80;;;2.40;99.90;;;;;;4695764;30;20016;-83
2021/12/06 02:07:53;;;;;;;53.93;24.93;;;2.40;99.90;;;;;;4700913;30;20498;-83
2021/12/06 02:10:20;;;;;;;59.43;25.53;;;2.30;99.90;;;;;;4689175;30;20049;-83
2021/12/06 02:12:49;;;;;;;63.47;26.03;;;2.30;99.90;;;;;;4675921;30;20088;-83
2021/12/06 02:17:59;;;;;;;54.17;23.83;;;2.40;99.90;;;;;;4701948;30;20049;-82
2021/12/06 02:20:28;;;;;;;50.90;23.43;;;2.40;99.90;;;;;;4690193;30;20052;-83
2021/12/06 02:22:55;;;;;;;55.40;23.80;;;2.30;99.90;;;;;;4712375;30;20049;-83
2021/12/06 02:25:21;;;;;;;57.83;24.93;;;2.40;99.90;;;;;;4660845;30;20530;-82
2021/12/06 02:27:49;;;;;;;60.43;24.73;;;2.50;99.90;;;;;;4709581;30;20060;-81
2021/12/06 02:30:17;;;;;;;55.20;23.30;;;2.40;99.90;;;;;;4701653;30;20094;-81
2021/12/06 02:32:44;;;;;;;55.60;24.10;;;2.40;99.90;;;;;;4696269;30;20052;-83
2021/12/06 02:35:15;;;;;;;54.90;24.07;;;2.40;99.90;;;;;;4679554;30;20048;-83
2021/12/06 02:37:41;;;;;;;62.30;25.23;;;2.40;99.90;;;;;;4695523;30;20056;-83
2021/12/06 02:40:14;;;;;;;62.27;25.63;;;2.40;99.90;;;;;;4706580;30;20053;-83
2021/12/06 02:42:43;;;;;;;60.60;25.83;;;2.40;99.90;;;;;;4708450;30;20490;-83
2021/12/06 02:45:12;;;;;;;65.10;26.87;;;2.40;99.90;;;;;;4704862;30;20056;-83
2021/12/06 02:47:38;;;;;;;57.17;25.27;;;2.40;99.90;;;;;;4690565;30;20061;-82
2021/12/06 02:50:08;;;;;;;63.83;27.60;;;2.40;99.90;;;;;;4678246;30;20410;-82
2021/12/06 02:52:35;;;;;;;61.60;26.53;;;2.40;99.90;;;;;;4672748;30;20056;-83
2021/12/06 02:55:09;;;;;;;55.93;25.20;;;2.40;99.90;;;;;;4706769;30;20053;-83
2021/12/06 02:57:38;;;;;;;59.87;25.73;;;2.50;99.90;;;;;;4705243;30;20118;-82
2021/12/06 03:00:09;;;;;;;60.50;26.03;;;2.50;99.90;;;;;;4692928;30;20099;-83
2021/12/06 03:02:35;;;;;;;64.40;27.83;;;2.50;99.90;;;;;;4688344;30;20080;-82
2021/12/06 03:05:01;;;;;;;59.93;26.77;;;2.50;99.90;;;;;;4693795;30;20065;-83
2021/12/06 03:07:28;;;;;;;63.73;27.83;;;2.50;99.90;;;;;;4683222;30;20501;-82
2021/12/06 03:09:56;;;;;;;70.07;27.70;;;2.50;99.90;;;;;;4676589;30;20040;-83
2021/12/06 03:12:25;;;;;;;65.10;28.37;;;2.50;99.90;;;;;;4690269;30;20056;-82
2021/12/06 03:14:58;;;;;;;63.67;27.23;;;2.50;99.90;;;;;;4692375;30;20053;-83
2021/12/06 03:17:27;;;;;;;65.27;27.63;;;2.50;99.90;;;;;;4693556;30;20041;-82
2021/12/06 03:19:52;;;;;;;62.50;27.43;;;2.50;99.90;;;;;;4698648;30;20045;-83
2021/12/06 03:22:19;;;;;;;73.67;30.03;;;2.50;99.90;;;;;;4703903;30;20053;-82
2021/12/06 03:24:46;;;;;;;67.60;27.50;;;2.50;99.90;;;;;;4708281;30;20509;-82
2021/12/06 03:27:13;;;;;;;70.33;28.83;;;2.50;99.90;;;;;;4696564;30;20049;-83
2021/12/06 03:29:39;;;;;;;65.07;28.03;;;2.60;99.90;;;;;;4682732;30;20062;-83
2021/12/06 03:32:05;;;;;;;71.53;29.47;;;2.50;99.90;;;;;;4689428;30;20053;-83
2021/12/06 03:34:32;;;;;;;71.33;28.87;;;2.60;99.90;;;;;;4699265;30;20102;-83
2021/12/06 03:37:01;;;;;;;68.13;28.40;;;2.60;99.90;;;;;;4663772;30;20050;-83
2021/12/06 03:39:36;;;;;;;69.07;29.47;;;2.60;99.90;;;;;;4689492;30;20081;-83
2021/12/06 03:42:05;;;;;;;68.53;28.23;;;2.60;99.90;;;;;;4688410;30;20038;-83
2021/12/06 03:44:31;;;;;;;73.17;29.07;;;2.50;99.90;;;;;;4690753;30;20049;-83
2021/12/06 03:47:01;;;;;;;72.13;29.43;;;2.50;99.90;;;;;;4684912;30;20106;-82
2021/12/06 03:49:27;;;;;;;73.97;31.93;;;2.60;99.90;;;;;;4708695;30;20103;-83
2021/12/06 03:51:53;;;;;;;66.23;27.80;;;2.60;99.90;;;;;;4705676;30;20484;-83
2021/12/06 03:54:22;;;;;;;71.53;28.70;;;2.60;99.90;;;;;;4713749;30;20146;-82
2021/12/06 03:56:49;;;;;;;67.37;28.67;;;2.60;99.90;;;;;;4704247;30;20085;-83
2021/12/06 03:59:15;;;;;;;80.87;31.33;;;2.70;99.90;;;;;;4691216;30;20053;-83
2021/12/06 04:01:41;;;;;;;70.80;29.03;;;2.60;99.90;;;;;;4687181;30;20056;-83
2021/12/06 04:04:09;;;;;;;78.07;30.43;;;2.60;99.90;;;;;;4695054;30;20057;-83
2021/12/06 04:06:36;;;;;;;69.43;28.87;;;2.60;99.90;;;;;;4675836;30;20058;-83
2021/12/06 04:09:04;;;;;;;68.20;28.23;;;2.60;99.90;;;;;;4683013;30;20445;-83
2021/12/06 04:11:30;;;;;;;69.90;28.00;;;2.70;99.90;;;;;;4714046;30;20124;-83
2021/12/06 04:13:55;;;;;;;70.63;28.90;;;2.70;99.90;;;;;;4684925;30;20127;-83
2021/12/06 04:16:21;;;;;;;69.10;29.07;;;2.70;99.90;;;;;;4692832;30;20083;-83
2021/12/06 04:18:47;;;;;;;70.17;27.33;;;2.80;99.90;;;;;;4682656;30;20086;-83
2021/12/06 04:21:13;;;;;;;67.40;27.93;;;2.70;99.90;;;;;;4691013;30;20050;-83
2021/12/06 04:23:39;;;;;;;69.60;28.80;;;2.70;99.90;;;;;;4691613;30;20459;-83
2021/12/06 04:26:06;;;;;;;69.77;29.23;;;2.70;99.90;;;;;;4712616;30;20065;-82
2021/12/06 04:28:34;;;;;;;68.40;29.93;;;2.80;99.90;;;;;;4694631;30;20056;-83
2021/12/06 04:31:02;;;;;;;71.67;27.80;;;2.70;99.90;;;;;;4697010;30;20049;-83
2021/12/06 04:33:27;;;;;;;73.20;28.37;;;2.70;99.90;;;;;;4702551;30;20055;-82
2021/12/06 04:35:53;;;;;;;75.53;29.93;;;2.80;99.90;;;;;;4690508;30;20045;-83
2021/12/06 04:38:21;;;;;;;70.37;29.20;;;2.70;99.90;;;;;;4716944;30;20459;-83
2021/12/06 04:40:47;;;;;;;71.27;29.83;;;2.80;99.90;;;;;;4688289;30;20044;-83
2021/12/06 04:43:13;;;;;;;71.90;29.50;;;2.80;99.90;;;;;;4707501;30;20498;-83
2021/12/06 04:45:39;;;;;;;75.77;31.13;;;2.80;99.90;;;;;;4694275;30;20132;-83
2021/12/06 04:48:06;;;;;;;71.00;29.23;;;2.90;99.90;;;;;;4708027;30;20045;-83
2021/12/06 04:50:33;;;;;;;69.47;29.10;;;2.80;99.90;;;;;;4685328;30;20136;-83
2021/12/06 04:53:27;;;;;;;74.33;29.87;;;2.80;99.90;;;;;;4694338;30;20056;-83
2021/12/06 04:56:09;;;;;;;69.97;28.40;;;2.80;99.90;;;;;;4691081;30;20506;-83
2021/12/06 04:58:42;;;;;;;74.90;29.65;;;2.80;99.90;;;;;;4703053;30;20127;-83
2021/12/06 05:01:15;;;;;;;74.57;29.73;;;2.80;99.90;;;;;;4705481;30;20114;-83
2021/12/06 05:03:42;;;;;;;71.17;28.37;;;2.80;99.90;;;;;;4693519;30;20085;-83
2021/12/06 05:06:17;;;;;;;64.87;27.70;;;2.80;99.90;;;;;;4692827;30;20052;-83
2021/12/06 05:08:47;;;;;;;66.27;28.00;;;2.80;99.90;;;;;;4690703;30;20049;-83
2021/12/06 05:11:13;;;;;;;65.53;26.07;;;2.80;99.90;;;;;;4707108;30;20110;-83
2021/12/06 05:13:41;;;;;;;66.17;27.37;;;2.80;99.90;;;;;;4687318;30;20081;-83
2021/12/06 05:16:07;;;;;;;67.40;26.97;;;2.80;99.90;;;;;;4694753;30;20128;-81
2021/12/06 05:18:33;;;;;;;62.63;25.37;;;2.80;99.90;;;;;;4689428;30;20053;-81
2021/12/06 05:20:59;;;;;;;64.83;27.03;;;2.80;99.90;;;;;;4687849;30;20593;-83
2021/12/06 05:23:25;;;;;;;66.63;28.20;;;2.80;99.90;;;;;;4700988;30;20080;-83
2021/12/06 05:25:51;;;;;;;67.70;27.17;;;2.80;99.90;;;;;;4689613;30;20084;-83
2021/12/06 05:28:21;;;;;;;68.73;27.13;;;2.80;99.90;;;;;;4692374;30;20068;-83
2021/12/06 05:30:48;;;;;;;64.67;26.83;;;2.80;99.90;;;;;;4690869;30;20057;-83
2021/12/06 05:33:28;;;;;;;67.70;26.77;;;2.80;99.90;;;;;;4678215;30;20128;-83
2021/12/06 05:35:53;;;;;;;63.83;26.53;;;2.90;99.90;;;;;;4679161;30;20072;-83
2021/12/06 05:38:19;;;;;;;70.60;26.87;;;2.80;99.90;;;;;;4698336;30;20422;-83
2021/12/06 05:40:47;;;;;;;64.73;25.97;;;2.80;99.90;;;;;;4698735;30;20064;-83
2021/12/06 05:43:13;;;;;;;69.17;27.50;;;2.80;99.90;;;;;;4670181;30;20060;-83
2021/12/06 05:45:39;;;;;;;61.47;24.73;;;2.80;99.90;;;;;;4691591;30;20045;-83
2021/12/06 05:48:05;;;;;;;63.00;26.93;;;2.80;99.90;;;;;;4685944;30;20418;-83
2021/12/06 05:50:32;;;;;;;66.33;27.40;;;2.90;99.90;;;;;;4701406;30;20045;-83
2021/12/06 05:52:58;;;;;;;73.57;28.00;;;2.90;99.90;;;;;;4691973;30;20057;-82
2021/12/06 05:55:27;;;;;;;72.80;29.00;;;2.90;99.90;;;;;;4705169;30;20053;-82
2021/12/06 05:57:53;;;;;;;71.40;28.80;;;2.80;99.90;;;;;;4693425;30;20051;-83
2021/12/06 06:00:21;;;;;;;80.07;30.53;;;2.80;99.90;;;;;;4712379;30;20053;-83
2021/12/06 06:02:47;;;;;;;81.33;30.10;;;2.90;99.90;;;;;;4691778;30;20041;-83
2021/12/06 06:05:14;;;;;;;76.97;29.67;;;2.80;99.90;;;;;;4698135;30;20060;-83
2021/12/06 06:07:39;;;;;;;78.60;28.37;;;2.80;99.90;;;;;;4683695;30;20502;-83
2021/12/06 06:10:06;;;;;;;80.97;31.50;;;2.80;99.90;;;;;;4700778;30;20049;-83
2021/12/06 06:12:32;;;;;;;82.43;31.80;;;2.80;99.90;;;;;;4677396;30;20046;-83
2021/12/06 06:14:57;;;;;;;74.43;29.10;;;2.80;99.90;;;;;;4711537;30;20061;-83
2021/12/06 06:17:24;;;;;;;75.10;29.23;;;2.90;99.90;;;;;;4700413;30;20503;-82
2021/12/06 06:19:53;;;;;;;65.63;25.20;;;2.90;99.90;;;;;;4684110;30;20533;-82
2021/12/06 06:22:19;;;;;;;65.03;25.37;;;2.90;99.90;;;;;;4705867;30;20390;-83
2021/12/06 06:24:46;;;;;;;68.93;25.63;;;2.90;99.90;;;;;;4692222;30;20134;-83
2021/12/06 06:27:12;;;;;;;66.70;26.77;;;2.80;99.90;;;;;;4686189;30;20507;-82
2021/12/06 06:29:38;;;;;;;70.67;26.07;;;2.80;99.90;;;;;;4686174;30;20061;-82
2021/12/06 06:32:05;;;;;;;70.97;28.60;;;2.80;99.90;;;;;;4707576;30;20041;-83
2021/12/06 06:34:31;;;;;;;70.23;26.27;;;2.80;99.90;;;;;;4679066;30;20084;-83
2021/12/06 06:36:57;;;;;;;70.33;27.27;;;2.80;99.90;;;;;;4704025;30;20051;-83
2021/12/06 06:39:23;;;;;;;71.37;27.97;;;2.90;99.90;;;;;;4714719;30;20049;-83
2021/12/06 06:41:50;;;;;;;77.20;29.27;;;2.80;99.90;;;;;;4702601;30;20049;-82
2021/12/06 06:44:17;;;;;;;76.90;27.70;;;2.90;99.90;;;;;;4671859;30;20372;-83
2021/12/06 06:46:45;;;;;;;74.10;29.33;;;2.80;99.90;;;;;;4691382;30;20129;-82
2021/12/06 06:49:12;;;;;;;67.30;26.53;;;2.80;99.90;;;;;;4710277;30;20111;-83
2021/12/06 06:51:39;;;;;;;74.47;27.97;;;2.80;99.90;;;;;;4682574;30;20046;-83
2021/12/06 06:54:05;;;;;;;71.50;28.00;;;2.90;99.90;;;;;;4702150;30;20375;-83
2021/12/06 06:56:31;;;;;;;73.40;28.47;;;2.80;99.90;;;;;;4685800;30;20053;-83
2021/12/06 06:58:57;;;;;;;75.50;27.77;;;2.80;99.90;;;;;;4689116;30;20569;-83
2021/12/06 07:01:23;;;;;;;81.90;31.27;;;2.80;99.90;;;;;;4698166;30;20137;-83
2021/12/06 07:03:53;;;;;;;71.77;28.53;;;2.90;99.90;;;;;;4691248;30;20107;-83
2021/12/06 07:06:21;;;;;;;72.37;26.63;;;2.80;99.90;;;;;;4688221;30;20498;-82
2021/12/06 07:08:47;;;;;;;71.17;29.17;;;2.80;99.90;;;;;;4674889;30;20544;-81
2021/12/06 07:11:13;;;;;;;75.83;27.67;;;2.90;99.90;;;;;;4670576;30;20054;-82
2021/12/06 07:13:39;;;;;;;79.73;27.40;;;2.80;99.90;;;;;;4695089;30;20480;-81
2021/12/06 07:16:08;;;;;;;72.90;26.47;;;2.80;99.90;;;;;;4686629;30;20045;-79
2021/12/06 07:18:34;;;;;;;73.30;28.43;;;2.80;99.90;;;;;;4704035;30;20059;-79
2021/12/06 07:21:00;;;;;;;79.23;28.17;;;2.80;99.90;;;;;;4689519;30;20049;-80
2021/12/06 07:23:25;;;;;;;71.43;26.57;;;2.80;99.90;;;;;;4682826;30;20073;-80
2021/12/06 07:25:51;;;;;;;74.50;27.27;;;2.80;99.90;;;;;;4671716;30;20438;-80
2021/12/06 07:28:17;;;;;;;66.20;25.57;;;2.80;99.90;;;;;;4687102;30;20049;-79
2021/12/06 07:30:43;;;;;;;64.63;25.30;;;2.80;99.90;;;;;;4679363;30;20072;-80
2021/12/06 07:33:08;;;;;;;62.20;25.07;;;2.80;99.90;;;;;;4680937;30;20041;-80
2021/12/06 07:35:34;;;;;;;55.03;23.37;;;2.90;99.90;;;;;;4659120;30;20448;-80
2021/12/06 07:38:02;;;;;;;62.33;22.63;;;2.80;99.90;;;;;;4676975;30;20042;-80
2021/12/06 07:40:28;;;;;;;59.37;24.30;;;2.80;99.90;;;;;;4698999;30;20080;-80
2021/12/06 07:42:54;;;;;;;61.70;22.43;;;2.80;99.90;;;;;;4694170;30;20474;-80
2021/12/06 07:45:20;;;;;;;60.70;23.47;;;2.80;99.90;;;;;;4687960;30;20087;-80
2021/12/06 07:47:47;;;;;;;63.03;24.03;;;2.80;99.90;;;;;;4702776;30;20136;-80
2021/12/06 07:50:16;;;;;;;60.97;22.97;;;2.80;99.90;;;;;;4667355;30;20533;-79
2021/12/06 07:52:43;;;;;;;62.43;23.83;;;2.80;99.90;;;;;;4698593;30;20444;-80
2021/12/06 07:55:13;;;;;;;59.73;22.90;;;2.80;99.90;;;;;;4685220;30;20049;-80
2021/12/06 07:57:39;;;;;;;57.23;23.07;;;2.80;99.90;;;;;;4709111;30;20050;-80
2021/12/06 08:00:20;;;;;;;52.80;22.73;;;2.80;99.90;;;;;;4712230;30;20521;-80
2021/12/06 08:02:46;;;;;;;53.73;22.20;;;2.80;99.90;;;;;;4684888;30;20064;-80
2021/12/06 08:05:32;;;;;;;63.17;23.60;;;2.80;99.90;;;;;;4697321;30;20398;-79
2021/12/06 08:08:01;;;;;;;52.53;22.83;;;2.70;99.90;;;;;;4683254;30;20053;-80
2021/12/06 08:10:28;;;;;;;57.10;23.33;;;2.80;99.90;;;;;;4686133;30;20115;-80
2021/12/06 08:12:55;;;;;;;60.13;22.83;;;2.90;99.90;;;;;;4703025;30;20045;-80
2021/12/06 08:15:20;;;;;;;55.87;22.27;;;2.80;99.90;;;;;;4708964;30;20067;-80
2021/12/06 08:17:47;;;;;;;54.50;21.97;;;2.90;99.90;;;;;;4692076;30;20128;-80
2021/12/06 08:20:13;;;;;;;53.27;22.33;;;2.90;99.90;;;;;;4701642;30;20049;-80
2021/12/06 08:22:39;;;;;;;52.77;21.33;;;2.90;99.90;;;;;;4689324;30;20075;-80
2021/12/06 08:25:07;;;;;;;49.87;20.77;;;2.80;99.90;;;;;;4694595;30;20061;-80
2021/12/06 08:27:33;;;;;;;46.90;20.97;;;2.80;99.90;;;;;;4683090;30;20412;-80
2021/12/06 08:29:58;;;;;;;53.50;21.27;;;2.90;99.90;;;;;;4680832;30;20178;-80
2021/12/06 08:32:24;;;;;;;52.00;20.87;;;2.90;99.90;;;;;;4681181;30;20156;-80
2021/12/06 08:34:50;;;;;;;56.97;21.57;;;2.80;99.90;;;;;;4678833;30;20478;-80
2021/12/06 08:37:16;;;;;;;52.33;21.77;;;2.80;99.90;;;;;;4691970;30;20503;-80
2021/12/06 08:39:42;;;;;;;50.67;21.53;;;2.90;99.90;;;;;;4710016;30;20560;-80
2021/12/06 08:42:09;;;;;;;52.53;21.57;;;2.90;99.90;;;;;;4681554;30;20049;-80
2021/12/06 08:44:35;;;;;;;50.97;21.33;;;2.80;99.90;;;;;;4668140;30;20064;-80
2021/12/06 08:47:02;;;;;;;53.97;22.10;;;2.90;99.90;;;;;;4695430;30;20057;-80
2021/12/06 08:49:29;;;;;;;49.60;20.73;;;2.90;99.90;;;;;;4667483;30;20157;-80
2021/12/06 08:51:57;;;;;;;46.27;20.87;;;2.80;99.90;;;;;;4685004;30;20052;-79
2021/12/06 08:54:26;;;;;;;53.00;20.63;;;2.90;99.90;;;;;;4680479;30;20056;-80
2021/12/06 08:56:54;;;;;;;51.50;20.33;;;2.80;99.90;;;;;;4686993;30;20041;-80
2021/12/06 08:59:20;;;;;;;52.27;20.63;;;2.80;99.90;;;;;;4685679;30;20409;-80
2021/12/06 09:01:46;;;;;;;50.77;20.40;;;2.80;99.90;;;;;;4691257;30;20292;-81
2021/12/06 09:04:12;;;;;;;50.33;22.43;;;2.90;99.90;;;;;;4667657;30;20041;-80
2021/12/06 09:06:44;;;;;;;51.37;20.73;;;2.90;99.90;;;;;;4690478;30;20529;-80
2021/12/06 09:09:12;;;;;;;49.10;19.52;;;3.00;99.90;;;;;;4694440;30;20114;-80
2021/12/06 09:11:39;;;;;;;36.57;17.90;;;2.90;99.90;;;;;;4679440;30;20096;-80
2021/12/06 09:14:05;;;;;;;41.00;17.97;;;2.90;99.90;;;;;;4679036;30;20072;-80
2021/12/06 09:16:32;;;;;;;42.30;18.33;;;2.90;99.90;;;;;;4694630;30;20142;-81
2021/12/06 09:19:00;;;;;;;45.60;20.30;;;2.80;99.90;;;;;;4679237;30;20053;-80
2021/12/06 09:21:26;;;;;;;45.87;20.63;;;2.90;99.90;;;;;;4680046;30;20638;-81
2021/12/06 09:23:54;;;;;;;48.30;18.80;;;2.90;99.90;;;;;;4668153;30;20056;-81
2021/12/06 09:26:20;;;;;;;47.30;19.33;;;2.90;99.90;;;;;;4679650;30;20162;-80
2021/12/06 09:28:46;;;;;;;44.47;18.13;;;3.00;99.90;;;;;;4688286;30;20145;-80
2021/12/06 09:31:13;;;;;;;45.87;18.67;;;3.00;99.90;;;;;;4693643;30;20128;-80
2021/12/06 09:33:39;;;;;;;42.07;18.73;;;3.00;99.90;;;;;;4694616;30;20490;-80
2021/12/06 09:36:06;;;;;;;41.10;17.40;;;3.10;99.90;;;;;;4695373;30;20053;-81
2021/12/06 09:38:37;;;;;;;41.93;17.27;;;3.00;99.90;;;;;;4667312;30;20368;-80
2021/12/06 09:41:08;;;;;;;40.10;18.27;;;3.10;99.90;;;;;;4671189;30;20049;-80
2021/12/06 09:43:38;;;;;;;43.80;17.77;;;3.10;99.90;;;;;;4680355;30;20083;-81
2021/12/06 09:46:05;;;;;;;41.73;17.20;;;3.10;99.90;;;;;;4691322;30;20072;-81
2021/12/06 09:48:31;;;;;;;45.50;18.17;;;3.10;99.90;;;;;;4696571;30;20149;-80
2021/12/06 09:51:01;;;;;;;45.77;19.33;;;3.10;99.90;;;;;;4681128;30;20072;-80
2021/12/06 09:53:30;;;;;;;45.63;18.43;;;3.10;99.90;;;;;;4695811;30;20050;-80
2021/12/06 09:55:59;;;;;;;46.43;20.20;;;3.10;99.90;;;;;;4695781;30;20415;-81
2021/12/06 09:58:25;;;;;;;43.20;19.00;;;3.10;99.90;;;;;;4694877;30;20069;-80
2021/12/06 10:00:55;;;;;;;56.17;22.33;;;3.10;99.90;;;;;;4681662;30;20499;-81
2021/12/06 10:03:25;;;;;;;52.67;20.77;;;3.10;99.90;;;;;;4678902;30;20129;-80
2021/12/06 10:05:52;;;;;;;53.87;21.50;;;3.20;99.90;;;;;;4693641;30;20048;-80
2021/12/06 10:08:18;;;;;;;48.93;20.53;;;3.20;99.90;;;;;;4695787;30;20056;-80
2021/12/06 10:10:45;;;;;;;48.50;21.20;;;3.20;99.90;;;;;;4677549;30;20053;-80
2021/12/06 10:13:11;;;;;;;54.67;21.63;;;3.20;99.90;;;;;;4691159;30;20131;-80
2021/12/06 10:15:37;;;;;;;52.53;21.23;;;3.10;99.90;;;;;;4690919;30;20557;-81
2021/12/06 10:18:04;;;;;;;59.00;24.93;;;3.10;99.90;;;;;;4683109;30;20053;-81
2021/12/06 10:20:31;;;;;;;60.03;24.60;;;3.10;99.90;;;;;;4709685;30;20045;-81
2021/12/06 10:22:59;;;;;;;64.87;27.13;;;3.10;99.90;;;;;;4673252;30;20052;-80
2021/12/06 10:25:38;;;;;;;63.40;25.70;;;3.10;99.90;;;;;;4692834;30;20122;-81
2021/12/06 10:28:05;;;;;;;62.23;24.47;;;3.20;99.90;;;;;;4699859;30;20056;-81
2021/12/06 10:30:38;;;;;;;61.30;24.97;;;3.10;99.90;;;;;;4684188;30;20045;-80
2021/12/06 10:33:10;;;;;;;51.33;22.87;;;3.20;99.90;;;;;;4704565;30;20062;-80
2021/12/06 10:35:40;;;;;;;48.30;21.63;;;3.10;99.90;;;;;;4703320;30;20469;-80
2021/12/06 10:38:06;;;;;;;52.50;22.90;;;3.10;99.90;;;;;;4695149;30;20215;-80
2021/12/06 10:40:35;;;;;;;52.77;22.33;;;3.10;99.90;;;;;;4675304;30;20049;-80
2021/12/06 10:43:04;;;;;;;39.87;18.10;;;3.20;99.90;;;;;;4710850;30;20683;-81
2021/12/06 10:45:42;;;;;;;41.67;18.93;;;3.20;99.90;;;;;;4701319;30;20044;-79
2021/12/06 10:48:10;;;;;;;43.00;18.73;;;3.20;99.90;;;;;;4702428;30;20411;-79
2021/12/06 10:50:39;;;;;;;38.17;17.73;;;3.20;99.90;;;;;;4703952;30;20049;-80
2021/12/06 10:53:06;;;;;;;40.90;17.83;;;3.20;99.90;;;;;;4702356;30;20056;-81
2021/12/06 10:55:34;;;;;;;38.40;17.00;;;3.10;99.90;;;;;;4697279;30;20067;-80
2021/12/06 10:58:07;;;;;;;38.03;16.73;;;3.20;99.90;;;;;;4697242;30;20514;-81
2021/12/06 11:00:41;;;;;;;35.97;15.90;;;3.20;99.90;;;;;;4685893;30;20479;-80
2021/12/06 11:03:44;;;;;;;39.33;16.63;;;3.20;99.90;;;;;;4699701;30;20042;-80
2021/12/06 11:06:13;;;;;;;36.50;15.43;;;3.20;99.90;;;;;;4687068;30;20499;-80
2021/12/06 11:08:42;;;;;;;35.70;15.70;;;3.20;99.90;;;;;;4686214;30;20053;-81
2021/12/06 11:11:11;;;;;;;33.13;15.13;;;3.20;99.90;;;;;;4696257;30;20057;-81
2021/12/06 11:13:53;;;;;;;32.23;15.30;;;3.20;99.90;;;;;;4685476;30;20107;-80
2021/12/06 11:16:24;;;;;;;32.70;15.23;;;3.20;99.90;;;;;;4686680;30;20410;-80
2021/12/06 11:18:54;;;;;;;33.67;15.15;;;3.20;99.90;;;;;;4703355;30;20487;-81
2021/12/06 11:21:42;;;;;;;33.87;15.67;;;3.20;99.90;;;;;;4704951;30;20056;-80
2021/12/06 11:24:08;;;;;;;35.30;15.57;;;3.20;99.90;;;;;;4699319;30;20053;-80
2021/12/06 11:26:38;;;;;;;35.13;15.03;;;3.30;99.90;;;;;;4697985;30;20057;-80
2021/12/06 11:29:12;;;;;;;38.60;15.77;;;3.30;99.90;;;;;;4693519;30;20395;-81
2021/12/06 11:31:40;;;;;;;35.63;15.97;;;3.30;99.90;;;;;;4687133;30;20068;-81
2021/12/06 11:34:07;;;;;;;30.97;14.43;;;3.30;99.90;;;;;;4689210;30;20541;-81
2021/12/06 11:36:34;;;;;;;33.00;14.70;;;3.40;99.90;;;;;;4701052;30;20053;-80
2021/12/06 11:39:07;;;;;;;39.30;16.63;;;3.40;99.90;;;;;;4678868;30;20085;-80
2021/12/06 11:41:33;;;;;;;36.07;16.47;;;3.40;99.90;;;;;;4707328;30;20046;-80
2021/12/06 11:44:16;;;;;;;34.20;17.00;;;3.40;99.90;;;;;;4703340;30;20067;-81
2021/12/06 11:46:42;;;;;;;37.83;17.07;;;3.50;99.90;;;;;;4703693;30;20037;-81
2021/12/06 11:49:20;;;;;;;36.90;16.77;;;3.40;99.90;;;;;;4704672;30;20045;-81
2021/12/06 11:51:46;;;;;;;32.07;15.50;;;3.40;99.90;;;;;;4695202;30;20065;-80
2021/12/06 11:54:12;;;;;;;35.60;16.00;;;3.40;99.90;;;;;;4706344;30;20124;-81
2021/12/06 11:56:44;;;;;;;41.17;17.73;;;3.50;99.90;;;;;;4687677;30;20136;-81
2021/12/06 11:59:12;;;;;;;38.00;16.70;;;3.50;99.90;;;;;;4701751;30;20125;-80
2021/12/06 12:01:45;;;;;;;39.87;18.00;;;3.50;99.90;;;;;;4691154;30;20054;-81
2021/12/06 12:04:14;;;;;;;38.17;17.73;;;3.60;99.90;;;;;;4694040;30;20052;-81
2021/12/06 12:07:00;;;;;;;39.60;17.43;;;3.60;99.90;;;;;;4691778;30;20053;-81
2021/12/06 12:09:30;;;;;;;37.00;16.40;;;3.60;99.90;;;;;;4692093;30;20440;-80
2021/12/06 12:12:15;;;;;;;36.27;16.43;;;3.60;99.90;;;;;;4680236;30;20050;-81
2021/12/06 12:14:49;;;;;;;43.70;19.13;;;3.60;99.90;;;;;;4676970;30;20050;-81
2021/12/06 12:17:25;;;;;;;44.60;20.60;;;3.60;99.90;;;;;;4678510;30;20054;-81
2021/12/06 12:19:53;;;;;;;45.40;20.10;;;3.60;99.90;;;;;;4692737;30;20052;-80
2021/12/06 12:22:20;;;;;;;45.20;20.10;;;3.70;99.90;;;;;;4677884;30;20073;-81
2021/12/06 12:24:51;;;;;;;41.77;19.43;;;3.70;99.90;;;;;;4665158;30;20049;-82
2021/12/06 12:27:30;;;;;;;38.90;18.97;;;3.70;99.90;;;;;;4666378;30;20041;-80
2021/12/06 12:29:59;;;;;;;35.30;16.93;;;3.70;99.90;;;;;;4677939;30;20041;-81
2021/12/06 12:32:27;;;;;;;35.33;17.07;;;3.70;99.90;;;;;;4693232;30;20053;-81
2021/12/06 12:34:54;;;;;;;36.20;16.23;;;3.70;99.90;;;;;;4680192;30;20490;-81
2021/12/06 12:37:22;;;;;;;39.20;17.37;;;3.70;99.90;;;;;;4693058;30;21806;-81
2021/12/06 12:40:09;;;;;;;37.03;15.97;;;3.60;99.90;;;;;;4677971;30;20045;-81
2021/12/06 12:42:35;;;;;;;37.57;17.53;;;3.70;99.90;;;;;;4692380;30;20057;-82
2021/12/06 12:45:05;;;;;;;42.43;17.23;;;3.70;99.90;;;;;;4679193;30;20411;-81
2021/12/06 12:47:33;;;;;;;42.03;17.27;;;3.70;99.90;;;;;;4707458;30;20053;-81
2021/12/06 12:50:07;;;;;;;38.20;17.17;;;3.80;99.90;;;;;;4680942;30;20060;-81
2021/12/06 12:52:47;;;;;;;38.73;16.70;;;3.80;99.90;;;;;;4693298;30;20418;-81
2021/12/06 12:55:35;;;;;;;41.83;19.13;;;3.80;99.90;;;;;;4696167;30;20057;-81